sensor_id;sensor_type;location;lat;lon;timestamp;pressure;altitude;pressure_sealevel;temperature;humidity
6778;BME280;3426;52.244;10.534;2023-03-14T00:01:13;98244.66;;;15.43;63.86
6778;BME280;3426;52.244;10.534;2023-03-14T00:03:40;98255.69;;;15.32;64.54
6778;BME280;3426;52.244;10.534;2023-03-14T00:06:07;98263.91;;;15.53;64.15
6778;BME280;3426;52.244;10.534;2023-03-14T00:08:34;98251.63;;;15.44;63.99
6778;BME280;3426;52.244;10.534;2023-03-14T00:11:08;98237.44;;;15.52;63.95
6778;BME280;3426;52.244;10.534;2023-03-14T00:13:36;98236.25;;;15.54;63.99
6778;BME280;3426;52.244;10.534;2023-03-14T00:16:04;98227.78;;;15.43;64.21
6778;BME280;3426;52.244;10.534;2023-03-14T00:18:32;98209.44;;;15.48;64.37
6778;BME280;3426;52.244;10.534;2023-03-14T00:21:00;98205.81;;;15.41;64.65
6778;BME280;3426;52.244;10.534;2023-03-14T00:23:28;98218.97;;;15.42;64.84
6778;BME280;3426;52.244;10.534;2023-03-14T00:26:03;98229.25;;;15.53;63.85
6778;BME280;3426;52.244;10.534;2023-03-14T00:28:30;98223.56;;;15.56;64.35
6778;BME280;3426;52.244;10.534;2023-03-14T00:30:56;98202.56;;;15.53;64.28
6778;BME280;3426;52.244;10.534;2023-03-14T00:33:23;98187.00;;;15.34;65.04
6778;BME280;3426;52.244;10.534;2023-03-14T00:35:58;98194.81;;;15.35;64.52
6778;BME280;3426;52.244;10.534;2023-03-14T00:38:25;98219.13;;;15.49;64.58
6778;BME280;3426;52.244;10.534;2023-03-14T00:40:52;98219.13;;;15.41;64.58
6778;BME280;3426;52.244;10.534;2023-03-14T00:43:20;98215.97;;;15.45;64.06
6778;BME280;3426;52.244;10.534;2023-03-14T00:45:51;98230.75;;;15.08;65.11
6778;BME280;3426;52.244;10.534;2023-03-14T00:48:19;98224.97;;;15.36;64.14
6778;BME280;3426;52.244;10.534;2023-03-14T00:50:46;98220.38;;;15.22;64.39
6778;BME280;3426;52.244;10.534;2023-03-14T00:53:13;98227.44;;;15.46;63.41
6778;BME280;3426;52.244;10.534;2023-03-14T00:55:41;98223.06;;;15.53;63.65
6778;BME280;3426;52.244;10.534;2023-03-14T00:58:09;98240.06;;;15.13;64.52
6778;BME280;3426;52.244;10.534;2023-03-14T01:00:36;98238.22;;;15.21;64.23
6778;BME280;3426;52.244;10.534;2023-03-14T01:03:02;98239.38;;;15.27;63.78
6778;BME280;3426;52.244;10.534;2023-03-14T01:05:29;98240.97;;;15.44;62.99
6778;BME280;3426;52.244;10.534;2023-03-14T01:07:56;98236.84;;;15.33;63.13
6778;BME280;3426;52.244;10.534;2023-03-14T01:10:23;98229.06;;;15.16;63.88
6778;BME280;3426;52.244;10.534;2023-03-14T01:12:49;98229.09;;;15.07;64.14
6778;BME280;3426;52.244;10.534;2023-03-14T01:15:16;98232.13;;;14.23;67.80
6778;BME280;3426;52.244;10.534;2023-03-14T01:17:42;98223.19;;;14.65;65.88
6778;BME280;3426;52.244;10.534;2023-03-14T01:20:11;98212.50;;;14.81;64.77
6778;BME280;3426;52.244;10.534;2023-03-14T01:22:39;98215.44;;;15.02;63.90
6778;BME280;3426;52.244;10.534;2023-03-14T01:25:07;98214.22;;;15.21;64.19
6778;BME280;3426;52.244;10.534;2023-03-14T01:27:34;98208.66;;;15.39;62.69
6778;BME280;3426;52.244;10.534;2023-03-14T01:30:01;98212.16;;;14.92;63.25
6778;BME280;3426;52.244;10.534;2023-03-14T01:32:28;98207.28;;;15.04;62.75
6778;BME280;3426;52.244;10.534;2023-03-14T01:34:54;98207.34;;;14.39;65.02
6778;BME280;3426;52.244;10.534;2023-03-14T01:37:21;98201.97;;;14.96;63.60
6778;BME280;3426;52.244;10.534;2023-03-14T01:39:47;98181.00;;;14.84;63.83
6778;BME280;3426;52.244;10.534;2023-03-14T01:42:15;98172.78;;;15.02;63.01
6778;BME280;3426;52.244;10.534;2023-03-14T01:47:53;98166.66;;;14.94;62.30
6778;BME280;3426;52.244;10.534;2023-03-14T01:50:19;98166.75;;;15.08;62.04
6778;BME280;3426;52.244;10.534;2023-03-14T01:52:48;98186.03;;;14.63;62.86
6778;BME280;3426;52.244;10.534;2023-03-14T01:55:21;98193.88;;;14.56;63.16
6778;BME280;3426;52.244;10.534;2023-03-14T01:57:51;98186.03;;;14.63;62.56
6778;BME280;3426;52.244;10.534;2023-03-14T02:00:22;98168.25;;;14.55;62.03
6778;BME280;3426;52.244;10.534;2023-03-14T02:03:02;98159.78;;;14.36;62.83
6778;BME280;3426;52.244;10.534;2023-03-14T02:05:32;98156.91;;;14.45;61.66
6778;BME280;3426;52.244;10.534;2023-03-14T02:08:02;98169.75;;;14.50;61.66
6778;BME280;3426;52.244;10.534;2023-03-14T02:10:36;98159.56;;;14.45;61.62
6778;BME280;3426;52.244;10.534;2023-03-14T02:13:05;98157.09;;;14.27;62.26
6778;BME280;3426;52.244;10.534;2023-03-14T02:15:32;98140.59;;;14.65;61.05
6778;BME280;3426;52.244;10.534;2023-03-14T02:17:59;98134.66;;;14.05;62.43
6778;BME280;3426;52.244;10.534;2023-03-14T02:23:03;98135.25;;;14.73;59.92
6778;BME280;3426;52.244;10.534;2023-03-14T02:25:46;98132.00;;;14.05;62.00
6778;BME280;3426;52.244;10.534;2023-03-14T02:28:14;98140.81;;;14.30;61.63
6778;BME280;3426;52.244;10.534;2023-03-14T02:30:41;98140.97;;;14.53;60.20
6778;BME280;3426;52.244;10.534;2023-03-14T02:33:09;98158.53;;;14.87;59.03
6778;BME280;3426;52.244;10.534;2023-03-14T02:35:46;98161.22;;;14.46;60.33
6778;BME280;3426;52.244;10.534;2023-03-14T02:38:24;98158.28;;;13.92;62.00
6778;BME280;3426;52.244;10.534;2023-03-14T02:40:51;98167.91;;;14.34;60.98
6778;BME280;3426;52.244;10.534;2023-03-14T02:43:18;98167.75;;;14.11;61.83
6778;BME280;3426;52.244;10.534;2023-03-14T02:45:48;98156.91;;;14.70;58.99
6778;BME280;3426;52.244;10.534;2023-03-14T02:48:21;98152.94;;;14.17;61.33
6778;BME280;3426;52.244;10.534;2023-03-14T02:50:49;98157.59;;;14.06;61.61
6778;BME280;3426;52.244;10.534;2023-03-14T02:53:23;98150.63;;;14.30;61.26
6778;BME280;3426;52.244;10.534;2023-03-14T02:55:50;98149.63;;;13.90;61.88
6778;BME280;3426;52.244;10.534;2023-03-14T02:58:17;98146.44;;;14.44;60.08
6778;BME280;3426;52.244;10.534;2023-03-14T03:00:45;98140.47;;;14.01;61.83
6778;BME280;3426;52.244;10.534;2023-03-14T03:03:11;98138.00;;;14.08;61.09
6778;BME280;3426;52.244;10.534;2023-03-14T03:05:38;98133.81;;;14.29;60.22
6778;BME280;3426;52.244;10.534;2023-03-14T03:08:05;98121.34;;;14.05;61.10
6778;BME280;3426;52.244;10.534;2023-03-14T03:10:32;98121.66;;;14.27;60.92
6778;BME280;3426;52.244;10.534;2023-03-14T03:12:58;98102.41;;;13.76;61.59
6778;BME280;3426;52.244;10.534;2023-03-14T03:15:26;98101.06;;;14.13;60.18
6778;BME280;3426;52.244;10.534;2023-03-14T03:17:53;98098.53;;;14.36;59.92
6778;BME280;3426;52.244;10.534;2023-03-14T03:20:19;98099.16;;;14.46;59.75
6778;BME280;3426;52.244;10.534;2023-03-14T03:22:46;98098.72;;;14.10;61.10
6778;BME280;3426;52.244;10.534;2023-03-14T03:25:12;98087.09;;;14.02;61.83
6778;BME280;3426;52.244;10.534;2023-03-14T03:27:39;98107.03;;;13.66;62.04
6778;BME280;3426;52.244;10.534;2023-03-14T03:30:06;98094.59;;;14.07;60.63
6778;BME280;3426;52.244;10.534;2023-03-14T03:32:33;98096.22;;;13.59;62.52
6778;BME280;3426;52.244;10.534;2023-03-14T03:34:59;98097.09;;;13.84;61.78
6778;BME280;3426;52.244;10.534;2023-03-14T03:37:26;98083.56;;;13.37;62.96
6778;BME280;3426;52.244;10.534;2023-03-14T03:39:52;98088.41;;;13.49;62.90
6778;BME280;3426;52.244;10.534;2023-03-14T03:42:19;98085.13;;;13.80;61.54
6778;BME280;3426;52.244;10.534;2023-03-14T03:44:45;98067.63;;;14.02;60.67
6778;BME280;3426;52.244;10.534;2023-03-14T03:47:12;98072.16;;;13.85;61.63
6778;BME280;3426;52.244;10.534;2023-03-14T03:49:38;98057.53;;;13.57;62.67
6778;BME280;3426;52.244;10.534;2023-03-14T03:52:05;98070.31;;;13.69;61.72
6778;BME280;3426;52.244;10.534;2023-03-14T03:54:31;98085.72;;;14.23;60.89
6778;BME280;3426;52.244;10.534;2023-03-14T03:56:58;98076.97;;;13.82;62.13
6778;BME280;3426;52.244;10.534;2023-03-14T03:59:24;98075.63;;;13.53;63.14
6778;BME280;3426;52.244;10.534;2023-03-14T04:01:50;98065.81;;;13.78;61.90
6778;BME280;3426;52.244;10.534;2023-03-14T04:04:17;98057.97;;;14.09;61.13
6778;BME280;3426;52.244;10.534;2023-03-14T04:06:44;98066.66;;;13.46;63.71
6778;BME280;3426;52.244;10.534;2023-03-14T04:09:11;98062.63;;;13.99;61.49
6778;BME280;3426;52.244;10.534;2023-03-14T04:11:38;98071.31;;;13.76;62.14
6778;BME280;3426;52.244;10.534;2023-03-14T04:14:05;98076.91;;;14.22;60.53
6778;BME280;3426;52.244;10.534;2023-03-14T04:16:31;98077.81;;;13.74;62.45
6778;BME280;3426;52.244;10.534;2023-03-14T04:18:58;98098.22;;;13.49;62.93
6778;BME280;3426;52.244;10.534;2023-03-14T04:21:24;98088.94;;;13.86;61.93
6778;BME280;3426;52.244;10.534;2023-03-14T04:23:51;98092.09;;;13.97;60.87
6778;BME280;3426;52.244;10.534;2023-03-14T04:26:17;98079.78;;;13.96;61.45
6778;BME280;3426;52.244;10.534;2023-03-14T04:28:44;98096.06;;;14.10;61.46
6778;BME280;3426;52.244;10.534;2023-03-14T04:31:13;98080.94;;;14.02;61.22
6778;BME280;3426;52.244;10.534;2023-03-14T04:33:40;98094.22;;;13.45;62.20
6778;BME280;3426;52.244;10.534;2023-03-14T04:36:10;98084.94;;;13.57;62.59
6778;BME280;3426;52.244;10.534;2023-03-14T04:38:37;98099.31;;;12.80;64.99
6778;BME280;3426;52.244;10.534;2023-03-14T04:41:03;98100.03;;;12.98;63.87
6778;BME280;3426;52.244;10.534;2023-03-14T04:43:30;98098.75;;;13.69;62.66
6778;BME280;3426;52.244;10.534;2023-03-14T04:45:57;98097.19;;;13.50;63.60
6778;BME280;3426;52.244;10.534;2023-03-14T04:48:25;98090.44;;;13.80;61.16
6778;BME280;3426;52.244;10.534;2023-03-14T04:50:51;98099.06;;;13.82;62.26
6778;BME280;3426;52.244;10.534;2023-03-14T04:53:18;98101.38;;;13.44;64.07
6778;BME280;3426;52.244;10.534;2023-03-14T04:55:53;98101.53;;;12.92;65.55
6778;BME280;3426;52.244;10.534;2023-03-14T04:58:20;98097.31;;;12.73;66.53
6778;BME280;3426;52.244;10.534;2023-03-14T05:00:47;98108.34;;;13.45;64.49
6778;BME280;3426;52.244;10.534;2023-03-14T05:03:17;98110.00;;;12.88;66.22
6778;BME280;3426;52.244;10.534;2023-03-14T05:05:44;98094.53;;;13.50;64.69
6778;BME280;3426;52.244;10.534;2023-03-14T05:08:11;98097.09;;;13.84;63.37
6778;BME280;3426;52.244;10.534;2023-03-14T05:10:38;98088.41;;;13.49;63.07
6778;BME280;3426;52.244;10.534;2023-03-14T05:13:04;98090.44;;;13.96;62.75
6778;BME280;3426;52.244;10.534;2023-03-14T05:15:31;98098.25;;;13.07;63.37
6778;BME280;3426;52.244;10.534;2023-03-14T05:17:57;98096.59;;;13.06;64.19
6778;BME280;3426;52.244;10.534;2023-03-14T05:20:24;98100.53;;;13.60;61.91
6778;BME280;3426;52.244;10.534;2023-03-14T05:23:23;98093.22;;;13.54;61.56
6778;BME280;3426;52.244;10.534;2023-03-14T05:25:49;98087.94;;;13.04;63.43
6778;BME280;3426;52.244;10.534;2023-03-14T05:28:16;98085.44;;;13.85;60.75
6778;BME280;3426;52.244;10.534;2023-03-14T05:31:00;98099.88;;;13.50;61.89
6778;BME280;3426;52.244;10.534;2023-03-14T05:33:29;98090.84;;;13.26;61.03
6778;BME280;3426;52.244;10.534;2023-03-14T05:36:02;98095.25;;;13.02;63.50
6778;BME280;3426;52.244;10.534;2023-03-14T05:38:32;98085.88;;;12.81;64.16
6778;BME280;3426;52.244;10.534;2023-03-14T05:41:04;98085.19;;;13.21;63.38
6778;BME280;3426;52.244;10.534;2023-03-14T05:43:31;98079.44;;;13.59;61.96
6778;BME280;3426;52.244;10.534;2023-03-14T05:46:00;98082.69;;;13.20;62.91
6778;BME280;3426;52.244;10.534;2023-03-14T05:48:36;98081.28;;;13.83;61.32
6778;BME280;3426;52.244;10.534;2023-03-14T05:51:05;98082.81;;;13.10;62.64
6778;BME280;3426;52.244;10.534;2023-03-14T05:54:17;98073.47;;;12.98;63.60
6778;BME280;3426;52.244;10.534;2023-03-14T05:57:11;98068.50;;;12.95;63.24
6778;BME280;3426;52.244;10.534;2023-03-14T05:59:37;98072.47;;;13.58;62.17
6778;BME280;3426;52.244;10.534;2023-03-14T06:02:04;98079.53;;;12.74;64.51
6778;BME280;3426;52.244;10.534;2023-03-14T06:04:30;98078.72;;;12.13;66.72
6778;BME280;3426;52.244;10.534;2023-03-14T06:06:57;98078.44;;;12.51;64.96
6778;BME280;3426;52.244;10.534;2023-03-14T06:09:23;98070.09;;;13.22;63.51
6778;BME280;3426;52.244;10.534;2023-03-14T06:11:50;98075.41;;;13.38;62.08
6778;BME280;3426;52.244;10.534;2023-03-14T06:14:17;98080.31;;;13.09;64.41
6778;BME280;3426;52.244;10.534;2023-03-14T06:16:43;98075.06;;;13.25;62.20
6778;BME280;3426;52.244;10.534;2023-03-14T06:19:10;98078.44;;;13.43;62.36
6778;BME280;3426;52.244;10.534;2023-03-14T06:21:38;98093.19;;;12.79;64.75
6778;BME280;3426;52.244;10.534;2023-03-14T06:24:04;98089.72;;;13.37;63.52
6778;BME280;3426;52.244;10.534;2023-03-14T06:26:31;98090.41;;;13.88;61.04
6778;BME280;3426;52.244;10.534;2023-03-14T06:28:57;98084.13;;;13.73;61.44
6778;BME280;3426;52.244;10.534;2023-03-14T06:31:27;98103.34;;;12.58;65.99
6778;BME280;3426;52.244;10.534;2023-03-14T06:33:53;98096.72;;;12.88;64.50
6778;BME280;3426;52.244;10.534;2023-03-14T06:36:20;98097.72;;;13.53;62.92
6778;BME280;3426;52.244;10.534;2023-03-14T06:38:47;98106.25;;;13.15;64.18
6778;BME280;3426;52.244;10.534;2023-03-14T06:41:13;98110.88;;;13.88;61.53
6778;BME280;3426;52.244;10.534;2023-03-14T06:43:40;98108.72;;;13.00;63.37
6778;BME280;3426;52.244;10.534;2023-03-14T06:46:06;98112.84;;;12.94;65.04
6778;BME280;3426;52.244;10.534;2023-03-14T06:48:33;98120.31;;;13.33;63.17
6778;BME280;3426;52.244;10.534;2023-03-14T06:50:59;98125.63;;;14.39;60.72
6778;BME280;3426;52.244;10.534;2023-03-14T06:53:26;98110.66;;;14.38;59.58
6778;BME280;3426;52.244;10.534;2023-03-14T06:55:53;98103.41;;;13.75;61.33
6778;BME280;3426;52.244;10.534;2023-03-14T06:58:20;98112.69;;;14.20;59.70
6778;BME280;3426;52.244;10.534;2023-03-14T07:00:46;98105.72;;;14.19;59.29
6778;BME280;3426;52.244;10.534;2023-03-14T07:03:13;98104.22;;;14.08;59.29
6778;BME280;3426;52.244;10.534;2023-03-14T07:05:40;98097.69;;;14.43;57.96
6778;BME280;3426;52.244;10.534;2023-03-14T07:08:07;98103.03;;;14.27;59.01
6778;BME280;3426;52.244;10.534;2023-03-14T07:10:34;98092.75;;;13.50;61.34
6778;BME280;3426;52.244;10.534;2023-03-14T07:13:01;98089.38;;;14.22;57.61
6778;BME280;3426;52.244;10.534;2023-03-14T07:15:27;98094.25;;;13.69;60.16
6778;BME280;3426;52.244;10.534;2023-03-14T07:17:54;98090.91;;;14.16;58.70
6778;BME280;3426;52.244;10.534;2023-03-14T07:20:23;98097.31;;;14.63;57.71
6778;BME280;3426;52.244;10.534;2023-03-14T07:22:50;98094.72;;;14.30;58.21
6778;BME280;3426;52.244;10.534;2023-03-14T07:25:17;98095.41;;;14.88;56.83
6778;BME280;3426;52.244;10.534;2023-03-14T07:27:45;98094.66;;;14.46;58.84
6778;BME280;3426;52.244;10.534;2023-03-14T07:30:12;98097.88;;;14.25;58.73
6778;BME280;3426;52.244;10.534;2023-03-14T07:32:39;98102.31;;;14.66;57.83
6778;BME280;3426;52.244;10.534;2023-03-14T07:35:06;98096.69;;;14.36;60.06
6778;BME280;3426;52.244;10.534;2023-03-14T07:37:32;98091.59;;;15.44;55.64
6778;BME280;3426;52.244;10.534;2023-03-14T07:39:59;98090.22;;;15.48;55.88
6778;BME280;3426;52.244;10.534;2023-03-14T07:42:26;98089.06;;;14.25;59.78
6778;BME280;3426;52.244;10.534;2023-03-14T07:44:52;98088.75;;;13.95;61.40
6778;BME280;3426;52.244;10.534;2023-03-14T07:47:18;98081.69;;;14.60;59.97
6778;BME280;3426;52.244;10.534;2023-03-14T07:49:45;98073.16;;;13.84;60.90
6778;BME280;3426;52.244;10.534;2023-03-14T07:52:11;98079.91;;;14.36;59.43
6778;BME280;3426;52.244;10.534;2023-03-14T07:54:38;98076.44;;;13.29;63.89
6778;BME280;3426;52.244;10.534;2023-03-14T07:57:04;98084.41;;;12.87;65.06
6778;BME280;3426;52.244;10.534;2023-03-14T07:59:31;98074.38;;;14.53;61.08
6778;BME280;3426;52.244;10.534;2023-03-14T08:01:57;98069.69;;;15.26;58.23
6778;BME280;3426;52.244;10.534;2023-03-14T08:04:24;98063.72;;;15.24;58.85
6778;BME280;3426;52.244;10.534;2023-03-14T08:06:50;98062.75;;;15.17;57.80
6778;BME280;3426;52.244;10.534;2023-03-14T08:09:16;98062.94;;;16.22;55.47
6778;BME280;3426;52.244;10.534;2023-03-14T08:11:43;98060.16;;;15.62;56.09
6778;BME280;3426;52.244;10.534;2023-03-14T08:14:09;98061.38;;;15.75;56.65
6778;BME280;3426;52.244;10.534;2023-03-14T08:16:37;98057.56;;;15.92;55.85
6778;BME280;3426;52.244;10.534;2023-03-14T08:19:03;98061.16;;;15.30;57.34
6778;BME280;3426;52.244;10.534;2023-03-14T08:21:30;98059.38;;;14.92;59.22
6778;BME280;3426;52.244;10.534;2023-03-14T08:23:56;98051.00;;;15.57;57.10
6778;BME280;3426;52.244;10.534;2023-03-14T08:26:23;98052.84;;;15.33;57.94
6778;BME280;3426;52.244;10.534;2023-03-14T08:28:49;98047.28;;;15.43;57.58
6778;BME280;3426;52.244;10.534;2023-03-14T08:31:16;98049.47;;;15.08;57.85
6778;BME280;3426;52.244;10.534;2023-03-14T08:33:43;98046.31;;;15.36;57.15
6778;BME280;3426;52.244;10.534;2023-03-14T08:36:10;98046.50;;;15.80;55.29
6778;BME280;3426;52.244;10.534;2023-03-14T08:38:36;98056.63;;;15.62;55.33
6778;BME280;3426;52.244;10.534;2023-03-14T08:41:03;98053.34;;;14.75;57.59
6778;BME280;3426;52.244;10.534;2023-03-14T08:43:31;98056.28;;;14.80;58.67
6778;BME280;3426;52.244;10.534;2023-03-14T08:45:58;98046.91;;;14.45;58.09
6778;BME280;3426;52.244;10.534;2023-03-14T08:48:25;98057.06;;;15.20;56.22
6778;BME280;3426;52.244;10.534;2023-03-14T08:50:51;98060.25;;;15.46;55.47
6778;BME280;3426;52.244;10.534;2023-03-14T08:53:18;98051.72;;;15.74;54.84
6778;BME280;3426;52.244;10.534;2023-03-14T08:55:47;98056.34;;;16.17;54.13
6778;BME280;3426;52.244;10.534;2023-03-14T08:58:16;98048.81;;;15.83;55.06
6778;BME280;3426;52.244;10.534;2023-03-14T09:01:05;98052.44;;;15.68;55.66
6778;BME280;3426;52.244;10.534;2023-03-14T09:03:32;98050.22;;;15.71;54.89
6778;BME280;3426;52.244;10.534;2023-03-14T09:06:05;98063.94;;;15.14;57.78
6778;BME280;3426;52.244;10.534;2023-03-14T09:08:32;98048.75;;;15.69;56.03
6778;BME280;3426;52.244;10.534;2023-03-14T09:10:59;98051.63;;;15.36;56.51
6778;BME280;3426;52.244;10.534;2023-03-14T09:13:25;98050.44;;;16.37;54.68
6778;BME280;3426;52.244;10.534;2023-03-14T09:15:53;98054.66;;;15.33;57.04
6778;BME280;3426;52.244;10.534;2023-03-14T09:18:20;98055.38;;;15.27;57.88
6778;BME280;3426;52.244;10.534;2023-03-14T09:20:46;98059.47;;;15.60;57.66
6778;BME280;3426;52.244;10.534;2023-03-14T09:23:13;98069.75;;;15.49;58.19
6778;BME280;3426;52.244;10.534;2023-03-14T09:25:39;98068.09;;;15.17;58.46
6778;BME280;3426;52.244;10.534;2023-03-14T09:28:06;98063.25;;;15.20;59.62
6778;BME280;3426;52.244;10.534;2023-03-14T09:30:32;98071.88;;;14.99;59.66
6778;BME280;3426;52.244;10.534;2023-03-14T09:32:59;98077.25;;;15.45;57.53
6778;BME280;3426;52.244;10.534;2023-03-14T09:35:35;98069.09;;;15.70;57.47
6778;BME280;3426;52.244;10.534;2023-03-14T09:38:01;98067.28;;;16.08;57.52
6778;BME280;3426;52.244;10.534;2023-03-14T09:40:33;98067.00;;;15.80;57.57
6778;BME280;3426;52.244;10.534;2023-03-14T09:43:01;98080.47;;;14.70;61.35
6778;BME280;3426;52.244;10.534;2023-03-14T09:45:28;98070.81;;;15.31;59.21
6778;BME280;3426;52.244;10.534;2023-03-14T09:47:56;98062.72;;;15.94;57.90
6778;BME280;3426;52.244;10.534;2023-03-14T09:50:31;98068.53;;;15.28;58.40
6778;BME280;3426;52.244;10.534;2023-03-14T09:53:04;98075.81;;;15.88;59.00
6778;BME280;3426;52.244;10.534;2023-03-14T09:55:32;98070.72;;;15.25;59.46
6778;BME280;3426;52.244;10.534;2023-03-14T09:58:08;98086.19;;;15.98;57.68
6778;BME280;3426;52.244;10.534;2023-03-14T10:00:36;98085.75;;;14.87;60.08
6778;BME280;3426;52.244;10.534;2023-03-14T10:03:36;98097.63;;;15.15;59.38
6778;BME280;3426;52.244;10.534;2023-03-14T10:10:19;98080.91;;;16.13;56.48
6778;BME280;3426;52.244;10.534;2023-03-14T10:12:48;98083.72;;;16.34;57.23
6778;BME280;3426;52.244;10.534;2023-03-14T10:15:30;98080.31;;;16.70;55.68
6778;BME280;3426;52.244;10.534;2023-03-14T10:18:02;98077.97;;;15.85;57.15
6778;BME280;3426;52.244;10.534;2023-03-14T10:23:05;98071.34;;;16.19;57.25
6778;BME280;3426;52.244;10.534;2023-03-14T10:25:36;98080.97;;;16.57;55.83
6778;BME280;3426;52.244;10.534;2023-03-14T10:28:04;98081.97;;;15.35;57.97
6778;BME280;3426;52.244;10.534;2023-03-14T10:30:38;98087.09;;;16.43;55.22
6778;BME280;3426;52.244;10.534;2023-03-14T10:35:45;98066.63;;;15.68;58.73
6778;BME280;3426;52.244;10.534;2023-03-14T10:38:15;98089.59;;;15.92;58.11
6778;BME280;3426;52.244;10.534;2023-03-14T10:40:47;98095.00;;;16.22;56.88
6778;BME280;3426;52.244;10.534;2023-03-14T10:43:18;98086.69;;;16.16;56.83
6778;BME280;3426;52.244;10.534;2023-03-14T10:46:02;98089.25;;;16.48;55.46
6778;BME280;3426;52.244;10.534;2023-03-14T10:48:33;98074.00;;;16.19;58.24
6778;BME280;3426;52.244;10.534;2023-03-14T10:51:07;98075.31;;;15.62;59.57
6778;BME280;3426;52.244;10.534;2023-03-14T10:53:42;98081.59;;;16.59;57.36
6778;BME280;3426;52.244;10.534;2023-03-14T10:56:20;98096.13;;;16.42;57.64
6778;BME280;3426;52.244;10.534;2023-03-14T10:58:57;98096.25;;;16.11;59.29
6778;BME280;3426;52.244;10.534;2023-03-14T11:06:56;98089.69;;;16.95;54.98
6778;BME280;3426;52.244;10.534;2023-03-14T11:15:40;98100.31;;;15.38;59.21
6778;BME280;3426;52.244;10.534;2023-03-14T11:24:21;98102.16;;;15.60;57.71
6778;BME280;3426;52.244;10.534;2023-03-14T11:27:06;98092.56;;;15.97;56.34
6778;BME280;3426;52.244;10.534;2023-03-14T11:29:51;98090.81;;;16.04;57.07
6778;BME280;3426;52.244;10.534;2023-03-14T11:32:56;98094.22;;;15.98;57.19
6778;BME280;3426;52.244;10.534;2023-03-14T11:35:30;98097.28;;;15.41;57.85
6778;BME280;3426;52.244;10.534;2023-03-14T11:38:52;98085.22;;;16.14;57.39
6778;BME280;3426;52.244;10.534;2023-03-14T11:41:38;98099.59;;;15.44;59.38
6778;BME280;3426;52.244;10.534;2023-03-14T11:44:27;98089.59;;;15.92;58.37
6778;BME280;3426;52.244;10.534;2023-03-14T11:47:07;98072.00;;;15.60;58.84
6778;BME280;3426;52.244;10.534;2023-03-14T11:49:43;98078.63;;;16.54;56.47
6778;BME280;3426;52.244;10.534;2023-03-14T11:52:34;98087.69;;;15.32;59.71
6778;BME280;3426;52.244;10.534;2023-03-14T11:55:27;98075.00;;;16.03;57.44
6778;BME280;3426;52.244;10.534;2023-03-14T11:58:01;98064.78;;;15.69;57.90
6778;BME280;3426;52.244;10.534;2023-03-14T12:00:30;98069.56;;;15.73;58.73
6778;BME280;3426;52.244;10.534;2023-03-14T12:03:04;98078.19;;;15.29;62.09
6778;BME280;3426;52.244;10.534;2023-03-14T12:05:37;98087.44;;;16.10;61.79
6778;BME280;3426;52.244;10.534;2023-03-14T12:10:50;98087.09;;;14.82;69.94
6778;BME280;3426;52.244;10.534;2023-03-14T12:13:18;98089.34;;;14.54;72.92
6778;BME280;3426;52.244;10.534;2023-03-14T12:15:59;98100.41;;;14.02;74.45
6778;BME280;3426;52.244;10.534;2023-03-14T12:18:38;98100.22;;;14.12;73.72
6778;BME280;3426;52.244;10.534;2023-03-14T12:21:10;98110.97;;;13.29;77.59
6778;BME280;3426;52.244;10.534;2023-03-14T12:23:54;98177.16;;;13.06;77.22
6778;BME280;3426;52.244;10.534;2023-03-14T12:26:24;98208.31;;;11.73;73.61
6778;BME280;3426;52.244;10.534;2023-03-14T12:29:15;98208.13;;;12.02;72.93
6778;BME280;3426;52.244;10.534;2023-03-14T12:31:42;98229.50;;;11.82;72.00
6778;BME280;3426;52.244;10.534;2023-03-14T12:42:37;98293.94;;;11.92;72.03
6778;BME280;3426;52.244;10.534;2023-03-14T12:45:23;98293.22;;;10.88;74.14
6778;BME280;3426;52.244;10.534;2023-03-14T12:48:08;98316.38;;;11.33;74.61
6778;BME280;3426;52.244;10.534;2023-03-14T12:50:52;98315.19;;;11.18;72.61
6778;BME280;3426;52.244;10.534;2023-03-14T13:01:25;98384.75;;;9.43;75.08
6778;BME280;3426;52.244;10.534;2023-03-14T13:03:55;98400.56;;;9.73;74.47
6778;BME280;3426;52.244;10.534;2023-03-14T13:07:28;98430.97;;;9.89;72.34
6778;BME280;3426;52.244;10.534;2023-03-14T13:09:35;98438.88;;;9.58;72.30
6778;BME280;3426;52.244;10.534;2023-03-14T13:12:11;98454.25;;;9.22;72.09
6778;BME280;3426;52.244;10.534;2023-03-14T13:14:44;98465.53;;;9.66;70.47
6778;BME280;3426;52.244;10.534;2023-03-14T13:17:13;98486.56;;;8.94;72.14
6778;BME280;3426;52.244;10.534;2023-03-14T13:20:05;98493.69;;;9.56;72.38
6778;BME280;3426;52.244;10.534;2023-03-14T13:22:36;98510.66;;;8.57;75.58
6778;BME280;3426;52.244;10.534;2023-03-14T13:25:10;98512.25;;;8.92;72.08
6778;BME280;3426;52.244;10.534;2023-03-14T13:27:37;98527.31;;;9.01;72.78
6778;BME280;3426;52.244;10.534;2023-03-14T13:30:18;98553.28;;;9.28;71.39
6778;BME280;3426;52.244;10.534;2023-03-14T13:32:47;98570.13;;;8.61;72.94
6778;BME280;3426;52.244;10.534;2023-03-14T13:35:23;98582.84;;;8.56;73.34
6778;BME280;3426;52.244;10.534;2023-03-14T13:38:00;98574.28;;;8.97;71.69
6778;BME280;3426;52.244;10.534;2023-03-14T13:40:37;98592.56;;;8.44;72.13
6778;BME280;3426;52.244;10.534;2023-03-14T13:45:47;98629.44;;;8.22;71.90
6778;BME280;3426;52.244;10.534;2023-03-14T13:48:15;98656.06;;;8.30;71.78
6778;BME280;3426;52.244;10.534;2023-03-14T13:50:49;98670.16;;;8.42;72.17
6778;BME280;3426;52.244;10.534;2023-03-14T13:53:17;98676.06;;;8.21;71.41
6778;BME280;3426;52.244;10.534;2023-03-14T13:55:44;98675.91;;;8.01;71.12
6778;BME280;3426;52.244;10.534;2023-03-14T13:58:28;98691.06;;;8.21;71.41
6778;BME280;3426;52.244;10.534;2023-03-14T14:01:09;98701.44;;;7.28;70.72
6778;BME280;3426;52.244;10.534;2023-03-14T14:03:39;98725.88;;;8.02;68.75
6778;BME280;3426;52.244;10.534;2023-03-14T14:06:19;98730.69;;;8.08;69.09
6778;BME280;3426;52.244;10.534;2023-03-14T14:08:48;98737.00;;;7.94;69.06
6778;BME280;3426;52.244;10.534;2023-03-14T14:16:53;98770.13;;;8.10;67.87
6778;BME280;3426;52.244;10.534;2023-03-14T14:19:22;98787.47;;;8.01;68.35
6778;BME280;3426;52.244;10.534;2023-03-14T14:21:50;98801.66;;;8.70;65.50
6778;BME280;3426;52.244;10.534;2023-03-14T14:24:17;98803.41;;;8.59;66.46
6778;BME280;3426;52.244;10.534;2023-03-14T14:26:54;98801.78;;;8.69;66.51
6778;BME280;3426;52.244;10.534;2023-03-14T14:29:27;98819.09;;;8.01;71.10